EDDREDMA

Guest
Details From EDDR - Saarbrucken
To EDMA - Augsburg
Flight Number -
Tags generated
Created
Modified
Stats Distance 158 nm / 294 km
Max Altitude 18,000 ft / 5,486 m
Waypoints 3
Social Downloads 0
Likes 0
Share

Download

Looking for another format? Having issues loading an existing format? Contact us
Advertisement - Login to hide

Notes

Basic altitude profile: - Ascent Rate: 2500ft/min - Ascent Speed: 250kts - Cruise Altitude: 18000ft - Cruise Speed: 420kts - Descent Rate: 1500ft/min - Descent Speed: 250kts Options: - Use NATs: yes - Use PACOTS: yes - Use low airways: yes - Use high airways: yes

Route

EDDR LAMGO EDMA

ID Type Via Altitude (ft/m) Position (lat/lon) Dist (leg/tot) Name
O EDDR APT - 0 / 0 49.21460 / 7.10951 - / 0 nm Saarbrucken
LAMGO FIX - 18,000 / 5,486 48.88580 / 8.77917 68 / 68 nm
O EDMA APT - 0 / 0 48.42430 / 10.93430 89 / 158 nm Augsburg

Altitude Profile

Advertisement - Login to hide

EDDR

Details ICAO EDDR (SCN)
Name Saarbrucken
Region Germany - Civil
Timezone Europe/Berlin (UTC+2.0)
Stats Elevation 1,057 ft / 322 m (AMSL)
Location 49.214600° 7.109510°
Runways 1
Magnetic Variation 2.537° E

METAR

EDDR 282320Z AUTO 06006KT CAVOK 20/09 Q1016

Decode

TAF

TAF EDDR 281700Z 2818/2918 07008KT CAVOK BECMG 2820/2823 VRB03KT BECMG 2908/2911 29006KT

Decode

Departure Runways

ID Width Length Bearing (true/mag) Surface Threshold Overrun Markings Lighting
09 148 ft / 45 m 6,568 ft / 2,002 m 87.44° / 84.90° ASPHALT 197 ft / 60 m 308 ft / 94 m PREC-APP CENTERLINE EDGE THRESHOLD MALSF
27 148 ft / 45 m 6,568 ft / 2,002 m 267.46° / 264.92° ASPHALT 331 ft / 101 m 0 ft / 0 m PREC-APP CENTERLINE EDGE THRESHOLD MALSF

EDMA

Details ICAO EDMA (AGB)
Name Augsburg
Region Germany - Civil
Timezone Europe/Berlin (UTC+2.0)
Stats Elevation 1,515 ft / 462 m (AMSL)
Location 48.424300° 10.934300°
Runways 2
Magnetic Variation 3.511° E

METAR

EDMA 282320Z AUTO VRB01KT 9999 OVC180/// 17/15 Q1016

Decode

TAF

Not found

Destination Runways

ID Width Length Bearing (true/mag) Surface Threshold Overrun Markings Lighting
07 98 ft / 30 m 5,221 ft / 1,591 m 71.42° / 67.91° ASPHALT 466 ft / 142 m 0 ft / 0 m APP EDGE THRESHOLD RAIL REIL-OMNI
07R 164 ft / 50 m 3,284 ft / 1,001 m 71.19° / 67.67° GRASS 0 ft / 0 m 0 ft / 0 m NONE EDGE THRESHOLD
25 98 ft / 30 m 5,221 ft / 1,591 m 251.43° / 247.92° ASPHALT 568 ft / 173 m 0 ft / 0 m PREC-APP EDGE THRESHOLD ALSF-I REIL-OMNI
25L 164 ft / 50 m 3,284 ft / 1,001 m 251.19° / 247.68° GRASS 0 ft / 0 m 0 ft / 0 m NONE EDGE THRESHOLD

Approach Navaids

Runway Type Ident Frequency Range Bearing (true/mag) Slope Elevation
25 LOC-ILS IAGW 108.50 MHz 18 nm / 33 km 251.42° / 247.91 ° - 1,515 ft / 462 m (AMSL)
25 GS IAGW 108.50 MHz 10 nm / 19 km 251.42° / 247.91 ° 3.50° 1,515 ft / 462 m (AMSL)
25 OM OM - - 251.39° / 247.88 ° - 1,515 ft / 462 m (AMSL)
25 MM MM - - 251.39° / 247.88 ° - 1,515 ft / 462 m (AMSL)

Popular Alternatives